• Join FlightAware (Why Join?)
  • Login
  • US Flag 
03:33AM EDT


 

Airport Tracker/Info


-or-


 

Live Flight TrackerFlight Track Log ✈ UAL1062 ✈ 19-Jun-2013 ✈ KBOS - KORD

Flight Track Log - Related Links

Times and Time Zones

All times are in EDT time to prevent confusion due to time zone crossing. See the UAL1062 flight status page for this flight to view local times or setup timezone preferences in your user account.

Time Position Orientation Groundspeed Altitude Reporting Facility
EDT Latitude Longitude Course Direction KTS MPH feet Rate Location/Type
09:25AM 42.3667 -70.9667 300° West 197 227 1,000  Level KA90
09:26AM 42.3833 -70.8500 79° East 230 265 4,400 2,220 Climbing KA90
09:27AM 42.5204 -70.8000 North  Level FlightAware Approximate
09:27AM 42.4114 -70.7922 57° Northeast 256 295 6,400  Level Boston Center
09:28AM 42.5935 -70.8636 308° West  Level FlightAware Approximate
09:28AM 42.4800 -70.7736 11° North 231 266 9,200  Level Boston Center
09:29AM 42.6469 -70.9657 300° West  Level FlightAware Approximate
09:29AM 42.5350 -70.8425 317° Northwest 211 243 12,500  Level Boston Center
09:30AM 42.6924 -71.0749 300° West  Level FlightAware Approximate
09:30AM 42.6033 -70.9619 308° West 284 327 14,500  Level Boston Center
09:31AM 42.6653 -71.0678 309° West 348 400 16,600 1,980 Climbing Boston Center
09:32AM 42.7247 -71.1767 307° West 363 418 18,500 1,620 Climbing Boston Center
09:33AM 42.7736 -71.2578 309° West 368 423 19,900 1,800 Climbing Boston Center
09:34AM 42.8022 -71.4269 283° West 368 423 22,200 2,100 Climbing Boston Center
09:35AM 42.8119 -71.5911 275° West 384 442 24,100 1,620 Climbing Boston Center
09:36AM 42.8256 -71.7436 277° West 400 460 25,500 1,500 Climbing Boston Center
09:37AM 42.8408 -71.8992 278° West 408 470 27,100 1,500 Climbing Boston Center
09:38AM 42.8561 -72.0550 278° West 413 475 28,500 1,320 Climbing Boston Center
09:39AM 42.8711 -72.2106 278° West 413 475 29,800 720 Climbing Boston Center
09:40AM 42.8881 -72.3550 279° West 424 488 30,000  Climbing Boston Center
09:41AM 42.9028 -72.5108 277° West 429 494 29,900  Descending Boston Center
09:42AM 42.9086 -72.6669 273° West 424 488 30,000  Climbing Boston Center
09:43AM 42.9228 -72.8228 277° West 424 488 30,000  Level Boston Center
09:44AM 42.9347 -72.9875 276° West 432 497 30,000  Level Boston Center
09:45AM 42.9525 -73.1522 278° West 437 503 30,000  Level Boston Center
09:46AM 42.9661 -73.3139 277° West 437 503 30,000  Level Boston Center
09:47AM 42.9750 -73.4928 274° West 437 503 30,000  Level Boston Center
09:48AM 42.9878 -73.6578 276° West 437 503 30,000 -60 Level Boston Center
09:49AM 43.0028 -73.8200 277° West 443 510 29,900 -60 Descending Boston Center
09:50AM 43.0153 -73.9847 276° West 443 510 29,900  Level Boston Center
09:51AM 43.0275 -74.1469 276° West 443 510 29,900  Level Boston Center
09:52AM 43.0408 -74.3464 275° West 443 510 29,900  Level Boston Center
09:53AM 43.0547 -74.5058 277° West 443 510 29,900  Level Boston Center
09:54AM 43.0644 -74.6539 275° West 443 510 29,900  Level Boston Center
09:55AM 43.0725 -74.7822 275° West 438 504 30,000  Climbing Boston Center
09:57AM 43.0850 -74.9761 275° West 438 504 29,900 -60 Descending Boston Center
09:58AM 43.0972 -75.1700 275° West 438 504 29,900  Level Boston Center
09:59AM 43.1078 -75.3325 275° West 433 498 29,900  Level Boston Center
10:00AM 43.1200 -75.4981 276° West 433 498 29,900  Level Boston Center
10:01AM 43.1281 -75.6608 274° West 433 498 29,900  Level Boston Center
10:02AM 43.1381 -75.8233 275° West 433 498 30,000  Climbing Boston Center
10:03AM 43.1497 -75.9864 276° West 433 498 29,900  Descending Boston Center
10:05AM 43.1500 -76.3000 270° West 430 495 30,000  Climbing Toronto Center
10:06AM 43.1500 -76.4333 270° West 420 483 30,000  Level Toronto Center
10:07AM 43.1500 -76.6167 270° West 430 495 30,000  Level Toronto Center
10:08AM 43.1500 -76.7833 270° West 430 495 30,000  Level Toronto Center
10:09AM 43.1500 -76.9333 270° West 430 495 30,000  Level Toronto Center
10:10AM 43.1500 -77.1000 270° West 430 495 30,000  Level Toronto Center
10:11AM 43.1333 -77.2500 261° West 430 495 30,000  Level Toronto Center
10:12AM 43.1500 -77.4167 278° West 430 495 30,000  Level Toronto Center
10:13AM 43.1500 -77.5833 270° West 430 495 30,000  Level Toronto Center
10:14AM 43.1333 -77.7667 263° West 430 495 30,000  Level Toronto Center
10:15AM 43.1333 -77.9167 270° West 430 495 30,000  Level Toronto Center
10:16AM 43.1333 -78.0833 270° West 440 506 30,000  Level Toronto Center
10:17AM 43.1333 -78.2667 270° West 440 506 30,000  Level Toronto Center
10:18AM 43.1167 -78.4167 261° West 450 518 30,000  Level Toronto Center
10:19AM 43.1333 -78.5833 278° West 440 506 30,000  Level Toronto Center
10:20AM 43.1167 -78.7667 263° West 450 518 30,000  Level Toronto Center
10:21AM 43.1167 -78.9333 270° West 440 506 30,000  Level Toronto Center
10:22AM 43.1167 -79.0833 270° West 440 506 30,000  Level Toronto Center
10:23AM 43.1000 -79.2667 263° West 440 506 30,000  Level Toronto Center
10:24AM 43.1000 -79.4333 270° West 430 495 30,000  Level Toronto Center
10:25AM 43.1000 -79.5833 270° West 420 483 30,000  Level Toronto Center
10:26AM 43.0833 -79.7500 262° West 420 483 30,000  Level Toronto Center
10:27AM 43.0833 -79.9000 270° West 420 483 30,000  Level Toronto Center
10:28AM 43.1000 -80.0500 279° West 420 483 30,000  Level Toronto Center
10:29AM 43.1667 -80.1833 304° West 410 472 30,000  Level Toronto Center
10:30AM 43.2500 -80.3000 314° West 410 472 30,000  Level Toronto Center
10:31AM 43.3167 -80.4167 308° West 410 472 30,000  Level Toronto Center
10:32AM 43.3167 -80.6000 270° West 420 483 30,000  Level Toronto Center
10:33AM 43.3167 -80.7333 270° West 430 495 30,000  Level Toronto Center
10:34AM 43.2833 -80.9167 256° West 420 483 30,000  Level Toronto Center
10:35AM 43.2667 -81.0500 260° West 420 483 30,000  Level Toronto Center
10:36AM 43.2500 -81.2167 262° West 410 472 30,000  Level Toronto Center
10:37AM 43.2333 -81.3667 261° West 410 472 30,000  Level Toronto Center
10:38AM 43.2167 -81.5333 262° West 410 472 30,000  Level Toronto Center
10:39AM 43.2000 -81.6667 260° West 410 472 30,000  Level Toronto Center
10:40AM 43.1833 -81.8500 263° West 410 472 30,000  Level Toronto Center
10:41AM 43.1667 -81.9833 260° West 420 483 30,000  Level Toronto Center
10:42AM 43.1500 -82.1500 262° West 420 483 30,000  Level Toronto Center
10:43AM 43.1333 -82.3000 261° West 420 483 30,000  Level Toronto Center
10:44AM 43.1167 -82.4667 262° West 420 483 30,000  Level Toronto Center
10:45AM 43.1000 -82.6167 261° West 410 472 30,000  Level Toronto Center
10:45AM 43.0953 -82.7014 266° West 424 488 30,000  Level Cleveland Center
10:46AM 43.0778 -82.8542 261° West 424 488 30,000  Level Cleveland Center
10:47AM 43.0578 -83.0069 260° West 424 488 30,000  Level Cleveland Center
10:48AM 43.0400 -83.1625 261° West 424 488 30,000  Level Cleveland Center
10:49AM 43.0217 -83.3181 261° West 424 488 30,000  Level Cleveland Center
10:50AM 43.0014 -83.4733 260° West 424 488 30,000  Level Cleveland Center
10:51AM 42.9808 -83.6256 260° West 424 488 30,000  Level Cleveland Center
10:52AM 42.9572 -83.7975 259° West 424 488 30,000  Level Cleveland Center
10:53AM 42.9472 -83.9361 264° West 424 488 30,000  Level Cleveland Center
10:54AM 42.9319 -84.0911 262° West 419 482 30,000  Level Cleveland Center
10:55AM 42.9203 -84.2156 263° West 414 476 30,000  Level Chicago Center
10:56AM 42.9014 -84.4014 262° West 413 475 30,000  Level Chicago Center
10:57AM 42.8869 -84.5561 263° West 413 475 30,000  Level Chicago Center
10:58AM 42.8708 -84.7108 262° West 413 475 30,000  Level Chicago Center
10:59AM 42.8539 -84.8672 262° West 417 480 30,000  Level Chicago Center
11:00AM 42.8347 -85.0536 262° West 415 478 30,000 -60 Level Chicago Center
11:01AM 42.8175 -85.2092 261° West 414 476 29,900 -540 Descending Chicago Center
11:02AM 42.8006 -85.3650 262° West 416 479 28,900 -960 Descending Chicago Center
11:03AM 42.7825 -85.5214 261° West 417 480 28,000 -960 Descending Chicago Center
11:04AM 42.7531 -85.6794 256° West 425 489 27,000 -1,020 Descending Chicago Center
11:05AM 42.7242 -85.8411 256° West 433 498 26,000 -1,260 Descending Chicago Center
11:06AM 42.6961 -85.9986 256° West 430 495 24,500 -2,040 Descending Chicago Center
11:07AM 42.6678 -86.1497 256° West 418 481 21,900 -2,280 Descending Chicago Center
11:08AM 42.6378 -86.3261 257° West 405 466 19,900 -960 Descending Chicago Center
11:10AM 42.6094 -86.4692 255° West 398 458 20,000 -660 Climbing Chicago Center
11:11AM 42.5819 -86.6106 255° West 392 451 18,600 -1,800 Descending Chicago Center
11:12AM 42.5581 -86.7469 257° West 382 440 16,400 -2,280 Descending Chicago Center
11:13AM 42.5203 -86.8761 248° West 375 432 14,000 -2,280 Descending Chicago Center
11:14AM 42.4856 -87.0008 249° West 365 420 11,800 -2,040 Descending Chicago Center
11:15AM 42.4525 -87.1231 250° West 355 409 9,900 -1,380 Descending Chicago Center
11:16AM 42.4194 -87.2494 251° West 305 351 9,000 -480 Descending Chicago Center
11:17AM 42.3933 -87.3489 250° West 286 329 9,000 -180 Level Chicago Center
11:18AM 42.3667 -87.4447 249° West 282 325 8,700 -840 Descending Chicago Center
11:19AM 42.3278 -87.5369 240° Southwest 286 329 7,300 -1,320 Descending Chicago Center
11:20AM 42.2533 -87.6111 216° Southwest 280 322 6,100 -1,140 Descending Chicago Center
11:21AM 42.1969 -87.6772 221° Southwest 273 314 5,000 -840 Descending Chicago Center
11:22AM 42.1436 -87.7389 221° Southwest 263 303 4,400 -600 Descending Chicago Center